sensor_id;sensor_type;location;lat;lon;timestamp;temperature;humidity
25024;DHT22;13033;50.936;5.334;2023-11-18T00:01:24;7.20;99.90
25024;DHT22;13033;50.936;5.334;2023-11-18T00:03:50;7.20;99.90
25024;DHT22;13033;50.936;5.334;2023-11-18T00:06:16;7.30;99.90
25024;DHT22;13033;50.936;5.334;2023-11-18T00:08:42;7.20;99.90
25024;DHT22;13033;50.936;5.334;2023-11-18T00:11:08;7.20;99.90
25024;DHT22;13033;50.936;5.334;2023-11-18T00:13:36;7.10;99.90
25024;DHT22;13033;50.936;5.334;2023-11-18T00:16:05;7.10;99.90
25024;DHT22;13033;50.936;5.334;2023-11-18T00:18:31;7.20;99.90
25024;DHT22;13033;50.936;5.334;2023-11-18T00:20:58;7.20;99.90
25024;DHT22;13033;50.936;5.334;2023-11-18T00:23:23;7.10;99.90
25024;DHT22;13033;50.936;5.334;2023-11-18T00:25:49;7.00;99.90
25024;DHT22;13033;50.936;5.334;2023-11-18T00:28:15;7.00;99.90
25024;DHT22;13033;50.936;5.334;2023-11-18T00:30:41;7.00;99.90
25024;DHT22;13033;50.936;5.334;2023-11-18T00:33:06;6.90;99.90
25024;DHT22;13033;50.936;5.334;2023-11-18T00:35:32;7.00;99.90
25024;DHT22;13033;50.936;5.334;2023-11-18T00:37:59;7.00;99.90
25024;DHT22;13033;50.936;5.334;2023-11-18T00:40:26;6.90;99.90
25024;DHT22;13033;50.936;5.334;2023-11-18T00:42:52;6.90;99.90
25024;DHT22;13033;50.936;5.334;2023-11-18T00:45:17;6.90;99.90
25024;DHT22;13033;50.936;5.334;2023-11-18T00:47:43;6.80;99.90
25024;DHT22;13033;50.936;5.334;2023-11-18T00:50:09;6.90;99.90
25024;DHT22;13033;50.936;5.334;2023-11-18T00:52:36;6.80;99.90
25024;DHT22;13033;50.936;5.334;2023-11-18T00:55:05;6.70;99.90
25024;DHT22;13033;50.936;5.334;2023-11-18T00:57:31;6.60;99.90
25024;DHT22;13033;50.936;5.334;2023-11-18T00:59:57;6.70;99.90
25024;DHT22;13033;50.936;5.334;2023-11-18T01:02:23;6.70;99.90
25024;DHT22;13033;50.936;5.334;2023-11-18T01:04:49;6.80;99.90
25024;DHT22;13033;50.936;5.334;2023-11-18T01:07:16;6.70;99.90
25024;DHT22;13033;50.936;5.334;2023-11-18T01:09:41;6.70;99.90
25024;DHT22;13033;50.936;5.334;2023-11-18T01:12:07;6.70;99.90
25024;DHT22;13033;50.936;5.334;2023-11-18T01:14:38;6.80;99.90
25024;DHT22;13033;50.936;5.334;2023-11-18T01:17:08;6.80;99.90
25024;DHT22;13033;50.936;5.334;2023-11-18T01:19:36;7.00;99.90
25024;DHT22;13033;50.936;5.334;2023-11-18T01:22:03;7.00;99.90
25024;DHT22;13033;50.936;5.334;2023-11-18T01:24:31;7.10;99.90
25024;DHT22;13033;50.936;5.334;2023-11-18T01:26:57;7.00;99.90
25024;DHT22;13033;50.936;5.334;2023-11-18T01:29:24;7.10;99.90
25024;DHT22;13033;50.936;5.334;2023-11-18T01:31:50;7.00;99.90
25024;DHT22;13033;50.936;5.334;2023-11-18T01:34:16;7.00;99.90
25024;DHT22;13033;50.936;5.334;2023-11-18T01:36:42;7.10;99.90
25024;DHT22;13033;50.936;5.334;2023-11-18T01:39:09;7.20;99.90
25024;DHT22;13033;50.936;5.334;2023-11-18T01:41:35;7.10;99.90
25024;DHT22;13033;50.936;5.334;2023-11-18T01:44:01;7.30;99.90
25024;DHT22;13033;50.936;5.334;2023-11-18T01:46:27;7.20;99.90
25024;DHT22;13033;50.936;5.334;2023-11-18T01:48:55;7.20;99.90
25024;DHT22;13033;50.936;5.334;2023-11-18T01:51:22;7.10;99.90
25024;DHT22;13033;50.936;5.334;2023-11-18T01:53:49;7.10;99.90
25024;DHT22;13033;50.936;5.334;2023-11-18T01:56:15;7.10;99.90
25024;DHT22;13033;50.936;5.334;2023-11-18T01:58:41;7.30;99.90
25024;DHT22;13033;50.936;5.334;2023-11-18T02:01:07;7.40;99.90
25024;DHT22;13033;50.936;5.334;2023-11-18T02:03:34;7.50;99.90
25024;DHT22;13033;50.936;5.334;2023-11-18T02:06:00;7.40;99.90
25024;DHT22;13033;50.936;5.334;2023-11-18T02:08:26;7.30;99.90
25024;DHT22;13033;50.936;5.334;2023-11-18T02:11:00;7.20;99.90
25024;DHT22;13033;50.936;5.334;2023-11-18T02:13:32;7.20;99.90
25024;DHT22;13033;50.936;5.334;2023-11-18T02:15:59;7.40;99.90
25024;DHT22;13033;50.936;5.334;2023-11-18T02:18:28;7.40;99.90
25024;DHT22;13033;50.936;5.334;2023-11-18T02:20:58;7.40;99.90
25024;DHT22;13033;50.936;5.334;2023-11-18T02:23:27;7.30;99.90
25024;DHT22;13033;50.936;5.334;2023-11-18T02:25:53;7.30;99.90
25024;DHT22;13033;50.936;5.334;2023-11-18T02:28:19;7.30;99.90
25024;DHT22;13033;50.936;5.334;2023-11-18T02:30:45;7.40;99.90
25024;DHT22;13033;50.936;5.334;2023-11-18T02:33:19;7.30;99.90
25024;DHT22;13033;50.936;5.334;2023-11-18T02:36:06;7.30;99.90
25024;DHT22;13033;50.936;5.334;2023-11-18T02:38:39;7.20;99.90
25024;DHT22;13033;50.936;5.334;2023-11-18T02:41:12;7.20;99.90
25024;DHT22;13033;50.936;5.334;2023-11-18T02:43:40;7.30;99.90
25024;DHT22;13033;50.936;5.334;2023-11-18T02:46:07;7.10;99.90
25024;DHT22;13033;50.936;5.334;2023-11-18T02:48:33;7.10;99.90
25024;DHT22;13033;50.936;5.334;2023-11-18T02:50:59;7.00;99.90
25024;DHT22;13033;50.936;5.334;2023-11-18T02:53:25;7.10;99.90
25024;DHT22;13033;50.936;5.334;2023-11-18T02:55:51;7.10;99.90
25024;DHT22;13033;50.936;5.334;2023-11-18T02:58:20;7.10;99.90
25024;DHT22;13033;50.936;5.334;2023-11-18T03:00:46;7.10;99.90
25024;DHT22;13033;50.936;5.334;2023-11-18T03:03:12;7.00;99.90
25024;DHT22;13033;50.936;5.334;2023-11-18T03:05:39;7.10;99.90
25024;DHT22;13033;50.936;5.334;2023-11-18T03:08:05;7.00;99.90
25024;DHT22;13033;50.936;5.334;2023-11-18T03:10:34;6.80;99.90
25024;DHT22;13033;50.936;5.334;2023-11-18T03:13:01;6.90;99.90
25024;DHT22;13033;50.936;5.334;2023-11-18T03:15:28;6.90;99.90
25024;DHT22;13033;50.936;5.334;2023-11-18T03:17:54;6.90;99.90
25024;DHT22;13033;50.936;5.334;2023-11-18T03:20:22;6.90;99.90
25024;DHT22;13033;50.936;5.334;2023-11-18T03:22:49;7.10;99.90
25024;DHT22;13033;50.936;5.334;2023-11-18T03:25:15;7.30;99.90
25024;DHT22;13033;50.936;5.334;2023-11-18T03:27:42;7.30;99.90
25024;DHT22;13033;50.936;5.334;2023-11-18T03:30:08;7.20;99.90
25024;DHT22;13033;50.936;5.334;2023-11-18T03:32:38;7.20;99.90
25024;DHT22;13033;50.936;5.334;2023-11-18T03:35:06;7.30;99.90
25024;DHT22;13033;50.936;5.334;2023-11-18T03:37:35;7.40;99.90
25024;DHT22;13033;50.936;5.334;2023-11-18T03:40:05;7.50;99.90
25024;DHT22;13033;50.936;5.334;2023-11-18T03:42:31;7.60;99.90
25024;DHT22;13033;50.936;5.334;2023-11-18T03:44:57;7.60;99.90
25024;DHT22;13033;50.936;5.334;2023-11-18T03:47:23;7.50;99.90
25024;DHT22;13033;50.936;5.334;2023-11-18T03:49:50;7.50;99.90
25024;DHT22;13033;50.936;5.334;2023-11-18T03:52:16;7.60;99.90
25024;DHT22;13033;50.936;5.334;2023-11-18T03:54:41;7.50;99.90
25024;DHT22;13033;50.936;5.334;2023-11-18T03:57:07;7.50;99.90
25024;DHT22;13033;50.936;5.334;2023-11-18T03:59:33;7.80;99.90
25024;DHT22;13033;50.936;5.334;2023-11-18T04:01:59;7.70;99.90
25024;DHT22;13033;50.936;5.334;2023-11-18T04:04:24;7.70;99.90
25024;DHT22;13033;50.936;5.334;2023-11-18T04:06:50;7.70;99.90
25024;DHT22;13033;50.936;5.334;2023-11-18T04:09:16;7.60;99.90
25024;DHT22;13033;50.936;5.334;2023-11-18T04:11:41;7.70;99.90
25024;DHT22;13033;50.936;5.334;2023-11-18T04:14:10;7.70;99.90
25024;DHT22;13033;50.936;5.334;2023-11-18T04:16:37;7.70;99.90
25024;DHT22;13033;50.936;5.334;2023-11-18T04:19:05;7.60;99.90
25024;DHT22;13033;50.936;5.334;2023-11-18T04:21:31;7.70;99.90
25024;DHT22;13033;50.936;5.334;2023-11-18T04:23:57;7.70;99.90
25024;DHT22;13033;50.936;5.334;2023-11-18T04:26:23;7.80;99.90
25024;DHT22;13033;50.936;5.334;2023-11-18T04:28:50;7.80;99.90
25024;DHT22;13033;50.936;5.334;2023-11-18T04:31:15;7.70;99.90
25024;DHT22;13033;50.936;5.334;2023-11-18T04:33:41;7.60;99.90
25024;DHT22;13033;50.936;5.334;2023-11-18T04:36:09;7.70;99.90
25024;DHT22;13033;50.936;5.334;2023-11-18T04:38:36;7.80;99.90
25024;DHT22;13033;50.936;5.334;2023-11-18T04:41:02;7.80;99.90
25024;DHT22;13033;50.936;5.334;2023-11-18T04:43:30;7.70;99.90
25024;DHT22;13033;50.936;5.334;2023-11-18T04:45:56;7.50;99.90
25024;DHT22;13033;50.936;5.334;2023-11-18T04:48:22;7.40;99.90
25024;DHT22;13033;50.936;5.334;2023-11-18T04:50:47;7.50;99.90
25024;DHT22;13033;50.936;5.334;2023-11-18T04:53:13;7.60;99.90
25024;DHT22;13033;50.936;5.334;2023-11-18T04:55:39;7.70;99.90
25024;DHT22;13033;50.936;5.334;2023-11-18T04:58:05;7.80;99.90
25024;DHT22;13033;50.936;5.334;2023-11-18T05:00:34;7.90;99.90
25024;DHT22;13033;50.936;5.334;2023-11-18T05:03:00;7.80;99.90
25024;DHT22;13033;50.936;5.334;2023-11-18T05:05:25;7.70;99.90
25024;DHT22;13033;50.936;5.334;2023-11-18T05:07:52;7.70;99.90
25024;DHT22;13033;50.936;5.334;2023-11-18T05:10:17;7.50;99.90
25024;DHT22;13033;50.936;5.334;2023-11-18T05:12:44;7.50;99.90
25024;DHT22;13033;50.936;5.334;2023-11-18T05:15:10;7.60;99.90
25024;DHT22;13033;50.936;5.334;2023-11-18T05:17:36;7.70;99.90
25024;DHT22;13033;50.936;5.334;2023-11-18T05:20:22;7.70;99.90
25024;DHT22;13033;50.936;5.334;2023-11-18T05:22:48;7.60;99.90
25024;DHT22;13033;50.936;5.334;2023-11-18T05:25:15;7.60;99.90
25024;DHT22;13033;50.936;5.334;2023-11-18T05:27:41;7.70;99.90
25024;DHT22;13033;50.936;5.334;2023-11-18T05:30:07;7.70;99.90
25024;DHT22;13033;50.936;5.334;2023-11-18T05:32:34;7.60;99.90
25024;DHT22;13033;50.936;5.334;2023-11-18T05:35:00;7.60;99.90
25024;DHT22;13033;50.936;5.334;2023-11-18T05:37:26;7.50;99.90
25024;DHT22;13033;50.936;5.334;2023-11-18T05:39:54;7.40;99.90
25024;DHT22;13033;50.936;5.334;2023-11-18T05:42:27;7.60;99.90
25024;DHT22;13033;50.936;5.334;2023-11-18T05:44:53;7.60;99.90
25024;DHT22;13033;50.936;5.334;2023-11-18T05:47:26;7.70;99.90
25024;DHT22;13033;50.936;5.334;2023-11-18T05:49:52;7.80;99.90
25024;DHT22;13033;50.936;5.334;2023-11-18T05:52:19;7.90;99.90
25024;DHT22;13033;50.936;5.334;2023-11-18T05:54:46;7.80;99.90
25024;DHT22;13033;50.936;5.334;2023-11-18T05:57:14;7.90;99.90
25024;DHT22;13033;50.936;5.334;2023-11-18T05:59:40;7.90;99.90
25024;DHT22;13033;50.936;5.334;2023-11-18T06:02:05;7.80;99.90
25024;DHT22;13033;50.936;5.334;2023-11-18T06:04:31;7.80;99.90
25024;DHT22;13033;50.936;5.334;2023-11-18T06:06:57;7.90;99.90
25024;DHT22;13033;50.936;5.334;2023-11-18T06:09:22;8.00;99.90
25024;DHT22;13033;50.936;5.334;2023-11-18T06:11:51;8.00;99.90
25024;DHT22;13033;50.936;5.334;2023-11-18T06:14:19;7.80;99.90
25024;DHT22;13033;50.936;5.334;2023-11-18T06:16:47;7.90;99.90
25024;DHT22;13033;50.936;5.334;2023-11-18T06:19:14;8.00;99.90
25024;DHT22;13033;50.936;5.334;2023-11-18T06:21:40;8.00;99.90
25024;DHT22;13033;50.936;5.334;2023-11-18T06:24:06;7.90;99.90
25024;DHT22;13033;50.936;5.334;2023-11-18T06:26:32;7.90;99.90
25024;DHT22;13033;50.936;5.334;2023-11-18T06:29:01;7.90;99.90
25024;DHT22;13033;50.936;5.334;2023-11-18T06:31:27;8.00;99.90
25024;DHT22;13033;50.936;5.334;2023-11-18T06:33:55;7.90;99.90
25024;DHT22;13033;50.936;5.334;2023-11-18T06:36:21;7.80;99.90
25024;DHT22;13033;50.936;5.334;2023-11-18T06:38:51;7.90;99.90
25024;DHT22;13033;50.936;5.334;2023-11-18T06:41:19;8.00;99.90
25024;DHT22;13033;50.936;5.334;2023-11-18T06:43:46;8.10;99.90
25024;DHT22;13033;50.936;5.334;2023-11-18T06:46:19;8.10;99.90
25024;DHT22;13033;50.936;5.334;2023-11-18T06:48:47;8.30;99.90
25024;DHT22;13033;50.936;5.334;2023-11-18T06:51:13;8.10;99.90
25024;DHT22;13033;50.936;5.334;2023-11-18T06:53:41;8.10;99.90
25024;DHT22;13033;50.936;5.334;2023-11-18T06:56:07;8.00;99.90
25024;DHT22;13033;50.936;5.334;2023-11-18T06:58:32;7.90;99.90
25024;DHT22;13033;50.936;5.334;2023-11-18T07:00:59;7.80;99.90
25024;DHT22;13033;50.936;5.334;2023-11-18T07:03:25;7.80;99.90
25024;DHT22;13033;50.936;5.334;2023-11-18T07:05:51;7.80;99.90
25024;DHT22;13033;50.936;5.334;2023-11-18T07:08:17;7.80;99.90
25024;DHT22;13033;50.936;5.334;2023-11-18T07:10:42;7.80;99.90
25024;DHT22;13033;50.936;5.334;2023-11-18T07:13:08;7.80;99.90
25024;DHT22;13033;50.936;5.334;2023-11-18T07:15:34;7.80;99.90
25024;DHT22;13033;50.936;5.334;2023-11-18T07:18:01;7.80;99.90
25024;DHT22;13033;50.936;5.334;2023-11-18T07:20:27;8.10;99.90
25024;DHT22;13033;50.936;5.334;2023-11-18T07:22:53;8.00;99.90
25024;DHT22;13033;50.936;5.334;2023-11-18T07:25:19;7.90;99.90
25024;DHT22;13033;50.936;5.334;2023-11-18T07:27:46;8.00;99.90
25024;DHT22;13033;50.936;5.334;2023-11-18T07:30:11;8.10;99.90
25024;DHT22;13033;50.936;5.334;2023-11-18T07:32:38;8.10;99.90
25024;DHT22;13033;50.936;5.334;2023-11-18T07:35:05;8.10;99.90
25024;DHT22;13033;50.936;5.334;2023-11-18T07:37:35;8.10;99.90
25024;DHT22;13033;50.936;5.334;2023-11-18T07:40:03;8.20;99.90
25024;DHT22;13033;50.936;5.334;2023-11-18T07:42:31;8.30;99.90
25024;DHT22;13033;50.936;5.334;2023-11-18T07:45:00;8.30;99.90
25024;DHT22;13033;50.936;5.334;2023-11-18T07:47:32;8.50;99.90
25024;DHT22;13033;50.936;5.334;2023-11-18T07:49:59;8.50;99.90
25024;DHT22;13033;50.936;5.334;2023-11-18T07:52:28;8.60;99.90
25024;DHT22;13033;50.936;5.334;2023-11-18T07:54:54;8.60;99.90
25024;DHT22;13033;50.936;5.334;2023-11-18T07:57:20;8.50;99.90
25024;DHT22;13033;50.936;5.334;2023-11-18T07:59:45;8.50;99.90
25024;DHT22;13033;50.936;5.334;2023-11-18T08:02:11;8.50;99.90
25024;DHT22;13033;50.936;5.334;2023-11-18T08:04:40;8.50;99.90
25024;DHT22;13033;50.936;5.334;2023-11-18T08:07:07;8.60;99.90
25024;DHT22;13033;50.936;5.334;2023-11-18T08:09:36;8.70;99.90
25024;DHT22;13033;50.936;5.334;2023-11-18T08:12:05;8.60;99.90
25024;DHT22;13033;50.936;5.334;2023-11-18T08:14:34;8.50;99.90
25024;DHT22;13033;50.936;5.334;2023-11-18T08:17:00;8.40;99.90
25024;DHT22;13033;50.936;5.334;2023-11-18T08:19:26;8.50;99.90
25024;DHT22;13033;50.936;5.334;2023-11-18T08:21:51;8.40;99.90
25024;DHT22;13033;50.936;5.334;2023-11-18T08:24:17;8.40;99.90
25024;DHT22;13033;50.936;5.334;2023-11-18T08:26:43;8.40;99.90
25024;DHT22;13033;50.936;5.334;2023-11-18T08:29:11;8.40;99.90
25024;DHT22;13033;50.936;5.334;2023-11-18T08:31:38;8.40;99.90
25024;DHT22;13033;50.936;5.334;2023-11-18T08:34:05;8.50;99.90
25024;DHT22;13033;50.936;5.334;2023-11-18T08:36:30;8.40;99.90
25024;DHT22;13033;50.936;5.334;2023-11-18T08:38:58;8.40;99.90
25024;DHT22;13033;50.936;5.334;2023-11-18T08:41:23;8.50;99.90
25024;DHT22;13033;50.936;5.334;2023-11-18T08:43:50;8.40;99.90
25024;DHT22;13033;50.936;5.334;2023-11-18T08:46:16;8.50;99.90
25024;DHT22;13033;50.936;5.334;2023-11-18T08:48:41;8.60;99.90
25024;DHT22;13033;50.936;5.334;2023-11-18T08:51:08;8.40;99.90
25024;DHT22;13033;50.936;5.334;2023-11-18T08:53:35;8.30;99.90
25024;DHT22;13033;50.936;5.334;2023-11-18T08:56:08;8.40;99.90
25024;DHT22;13033;50.936;5.334;2023-11-18T08:58:42;8.60;99.90
25024;DHT22;13033;50.936;5.334;2023-11-18T09:01:10;8.50;99.90
25024;DHT22;13033;50.936;5.334;2023-11-18T09:03:39;8.50;99.90
25024;DHT22;13033;50.936;5.334;2023-11-18T09:06:10;8.50;99.90
25024;DHT22;13033;50.936;5.334;2023-11-18T09:08:52;8.50;99.90
25024;DHT22;13033;50.936;5.334;2023-11-18T09:11:23;8.50;99.90
25024;DHT22;13033;50.936;5.334;2023-11-18T09:13:52;8.50;99.90
25024;DHT22;13033;50.936;5.334;2023-11-18T09:16:26;8.50;99.90
25024;DHT22;13033;50.936;5.334;2023-11-18T09:18:55;8.50;99.90
25024;DHT22;13033;50.936;5.334;2023-11-18T09:21:21;8.40;99.90
25024;DHT22;13033;50.936;5.334;2023-11-18T09:23:54;8.50;99.90
25024;DHT22;13033;50.936;5.334;2023-11-18T09:26:22;8.50;99.90
25024;DHT22;13033;50.936;5.334;2023-11-18T09:28:47;8.50;99.90
25024;DHT22;13033;50.936;5.334;2023-11-18T09:31:15;8.60;99.90
25024;DHT22;13033;50.936;5.334;2023-11-18T09:33:42;8.80;99.90
25024;DHT22;13033;50.936;5.334;2023-11-18T09:36:18;8.70;99.90
25024;DHT22;13033;50.936;5.334;2023-11-18T09:38:44;8.60;99.90
25024;DHT22;13033;50.936;5.334;2023-11-18T09:41:12;8.60;99.90
25024;DHT22;13033;50.936;5.334;2023-11-18T09:43:39;8.60;99.90
25024;DHT22;13033;50.936;5.334;2023-11-18T09:46:12;8.70;99.90
25024;DHT22;13033;50.936;5.334;2023-11-18T09:48:48;8.60;99.90
25024;DHT22;13033;50.936;5.334;2023-11-18T09:51:22;8.60;99.90
25024;DHT22;13033;50.936;5.334;2023-11-18T09:53:55;8.70;99.90
25024;DHT22;13033;50.936;5.334;2023-11-18T09:59:23;8.70;99.90
25024;DHT22;13033;50.936;5.334;2023-11-18T10:01:56;8.80;99.90
25024;DHT22;13033;50.936;5.334;2023-11-18T10:04:26;8.80;99.90
25024;DHT22;13033;50.936;5.334;2023-11-18T10:06:54;8.80;99.90
25024;DHT22;13033;50.936;5.334;2023-11-18T10:09:20;8.80;99.90
25024;DHT22;13033;50.936;5.334;2023-11-18T10:11:55;8.70;99.90
25024;DHT22;13033;50.936;5.334;2023-11-18T10:14:51;8.70;99.90
25024;DHT22;13033;50.936;5.334;2023-11-18T10:17:17;8.80;99.90
25024;DHT22;13033;50.936;5.334;2023-11-18T10:22:29;8.90;99.90
25024;DHT22;13033;50.936;5.334;2023-11-18T10:24:56;8.90;99.90
25024;DHT22;13033;50.936;5.334;2023-11-18T10:27:27;8.90;99.90
25024;DHT22;13033;50.936;5.334;2023-11-18T10:29:57;8.90;99.90
25024;DHT22;13033;50.936;5.334;2023-11-18T10:32:23;9.00;99.90
25024;DHT22;13033;50.936;5.334;2023-11-18T10:34:55;9.00;99.90
25024;DHT22;13033;50.936;5.334;2023-11-18T10:37:21;9.00;99.90
25024;DHT22;13033;50.936;5.334;2023-11-18T10:39:48;9.00;99.90
25024;DHT22;13033;50.936;5.334;2023-11-18T10:42:17;8.90;99.90
25024;DHT22;13033;50.936;5.334;2023-11-18T10:44:59;9.10;99.90
25024;DHT22;13033;50.936;5.334;2023-11-18T10:47:28;9.10;99.90
25024;DHT22;13033;50.936;5.334;2023-11-18T10:49:57;9.20;99.90
25024;DHT22;13033;50.936;5.334;2023-11-18T10:52:27;9.30;99.90
25024;DHT22;13033;50.936;5.334;2023-11-18T10:55:00;9.30;99.90
25024;DHT22;13033;50.936;5.334;2023-11-18T10:57:32;9.20;99.90
25024;DHT22;13033;50.936;5.334;2023-11-18T11:00:05;9.20;99.90
25024;DHT22;13033;50.936;5.334;2023-11-18T11:02:40;9.30;99.90
25024;DHT22;13033;50.936;5.334;2023-11-18T11:05:10;9.40;99.90
25024;DHT22;13033;50.936;5.334;2023-11-18T11:07:42;9.50;99.90
25024;DHT22;13033;50.936;5.334;2023-11-18T11:10:08;9.50;99.90
25024;DHT22;13033;50.936;5.334;2023-11-18T11:12:43;9.40;99.90
25024;DHT22;13033;50.936;5.334;2023-11-18T11:15:29;9.20;99.90
25024;DHT22;13033;50.936;5.334;2023-11-18T11:18:05;9.20;99.90
25024;DHT22;13033;50.936;5.334;2023-11-18T11:20:42;9.30;99.90
25024;DHT22;13033;50.936;5.334;2023-11-18T11:27:17;9.10;99.90
25024;DHT22;13033;50.936;5.334;2023-11-18T11:34:40;9.20;99.90
25024;DHT22;13033;50.936;5.334;2023-11-18T11:37:14;9.10;99.90
25024;DHT22;13033;50.936;5.334;2023-11-18T11:39:41;9.20;99.90
25024;DHT22;13033;50.936;5.334;2023-11-18T11:42:13;9.20;99.90
25024;DHT22;13033;50.936;5.334;2023-11-18T11:44:43;9.20;99.90
25024;DHT22;13033;50.936;5.334;2023-11-18T11:47:10;9.10;99.90
25024;DHT22;13033;50.936;5.334;2023-11-18T11:50:09;9.10;99.90
25024;DHT22;13033;50.936;5.334;2023-11-18T11:52:43;9.20;99.90
25024;DHT22;13033;50.936;5.334;2023-11-18T11:55:15;9.10;99.90
25024;DHT22;13033;50.936;5.334;2023-11-18T11:57:50;9.20;99.90
25024;DHT22;13033;50.936;5.334;2023-11-18T12:00:19;9.20;99.90
25024;DHT22;13033;50.936;5.334;2023-11-18T12:02:52;9.30;99.90
25024;DHT22;13033;50.936;5.334;2023-11-18T12:05:25;9.40;99.90
25024;DHT22;13033;50.936;5.334;2023-11-18T12:07:55;9.30;99.90
25024;DHT22;13033;50.936;5.334;2023-11-18T12:10:26;9.30;99.90
25024;DHT22;13033;50.936;5.334;2023-11-18T12:13:09;9.30;99.90
25024;DHT22;13033;50.936;5.334;2023-11-18T12:15:55;9.40;99.90
25024;DHT22;13033;50.936;5.334;2023-11-18T12:18:24;9.30;99.90
25024;DHT22;13033;50.936;5.334;2023-11-18T12:20:50;9.30;99.90
25024;DHT22;13033;50.936;5.334;2023-11-18T12:23:29;9.40;99.90
25024;DHT22;13033;50.936;5.334;2023-11-18T12:25:56;9.40;99.90
25024;DHT22;13033;50.936;5.334;2023-11-18T12:28:31;9.30;99.90
25024;DHT22;13033;50.936;5.334;2023-11-18T12:31:01;9.20;99.90
25024;DHT22;13033;50.936;5.334;2023-11-18T12:41:41;9.30;99.90
25024;DHT22;13033;50.936;5.334;2023-11-18T12:47:14;9.20;99.90
25024;DHT22;13033;50.936;5.334;2023-11-18T12:49:47;9.20;99.90
25024;DHT22;13033;50.936;5.334;2023-11-18T12:52:20;9.20;99.90
25024;DHT22;13033;50.936;5.334;2023-11-18T12:54:50;9.20;99.90
25024;DHT22;13033;50.936;5.334;2023-11-18T12:57:20;9.20;99.90
25024;DHT22;13033;50.936;5.334;2023-11-18T12:59:48;9.40;99.90
25024;DHT22;13033;50.936;5.334;2023-11-18T13:02:15;9.30;99.90
25024;DHT22;13033;50.936;5.334;2023-11-18T13:04:48;9.40;99.90
25024;DHT22;13033;50.936;5.334;2023-11-18T13:07:19;9.30;99.90
25024;DHT22;13033;50.936;5.334;2023-11-18T13:09:50;9.30;99.90
25024;DHT22;13033;50.936;5.334;2023-11-18T13:12:16;9.20;99.90
25024;DHT22;13033;50.936;5.334;2023-11-18T13:14:44;9.30;99.90
25024;DHT22;13033;50.936;5.334;2023-11-18T13:17:20;9.30;99.90
25024;DHT22;13033;50.936;5.334;2023-11-18T13:19:47;9.40;99.90
25024;DHT22;13033;50.936;5.334;2023-11-18T13:22:17;9.50;99.90
25024;DHT22;13033;50.936;5.334;2023-11-18T13:24:45;9.40;99.90
25024;DHT22;13033;50.936;5.334;2023-11-18T13:27:14;9.50;99.90
25024;DHT22;13033;50.936;5.334;2023-11-18T13:29:47;9.30;99.90
25024;DHT22;13033;50.936;5.334;2023-11-18T13:32:18;9.30;99.90
25024;DHT22;13033;50.936;5.334;2023-11-18T13:34:48;9.20;99.90
25024;DHT22;13033;50.936;5.334;2023-11-18T13:37:15;9.10;99.90
25024;DHT22;13033;50.936;5.334;2023-11-18T13:39:43;9.20;99.90
25024;DHT22;13033;50.936;5.334;2023-11-18T13:42:38;9.20;99.90
25024;DHT22;13033;50.936;5.334;2023-11-18T13:45:11;9.20;99.90
25024;DHT22;13033;50.936;5.334;2023-11-18T13:47:38;9.10;99.90
25024;DHT22;13033;50.936;5.334;2023-11-18T13:50:07;9.20;99.90
25024;DHT22;13033;50.936;5.334;2023-11-18T13:52:34;9.20;99.90
25024;DHT22;13033;50.936;5.334;2023-11-18T13:55:02;9.10;99.90
25024;DHT22;13033;50.936;5.334;2023-11-18T13:57:32;9.20;99.90
25024;DHT22;13033;50.936;5.334;2023-11-18T13:59:57;9.10;99.90
25024;DHT22;13033;50.936;5.334;2023-11-18T14:02:24;9.20;99.90
25024;DHT22;13033;50.936;5.334;2023-11-18T14:04:50;9.20;99.90
25024;DHT22;13033;50.936;5.334;2023-11-18T14:07:16;9.10;99.90
25024;DHT22;13033;50.936;5.334;2023-11-18T14:09:43;9.10;99.90
25024;DHT22;13033;50.936;5.334;2023-11-18T14:12:12;9.10;99.90
25024;DHT22;13033;50.936;5.334;2023-11-18T14:14:37;9.10;99.90
25024;DHT22;13033;50.936;5.334;2023-11-18T14:17:04;9.10;99.90
25024;DHT22;13033;50.936;5.334;2023-11-18T14:19:31;9.10;99.90
25024;DHT22;13033;50.936;5.334;2023-11-18T14:21:57;9.20;99.90
25024;DHT22;13033;50.936;5.334;2023-11-18T14:24:24;9.30;99.90
25024;DHT22;13033;50.936;5.334;2023-11-18T14:26:55;9.30;99.90
25024;DHT22;13033;50.936;5.334;2023-11-18T14:29:22;9.20;99.90
25024;DHT22;13033;50.936;5.334;2023-11-18T14:31:48;9.20;99.90
25024;DHT22;13033;50.936;5.334;2023-11-18T14:34:14;9.20;99.90
25024;DHT22;13033;50.936;5.334;2023-11-18T14:36:41;9.20;99.90
25024;DHT22;13033;50.936;5.334;2023-11-18T14:39:08;9.20;99.90
25024;DHT22;13033;50.936;5.334;2023-11-18T14:41:38;9.30;99.90
25024;DHT22;13033;50.936;5.334;2023-11-18T14:44:04;9.20;99.90
25024;DHT22;13033;50.936;5.334;2023-11-18T14:46:30;9.20;99.90
25024;DHT22;13033;50.936;5.334;2023-11-18T14:48:59;9.20;99.90
25024;DHT22;13033;50.936;5.334;2023-11-18T14:51:25;9.20;99.90
25024;DHT22;13033;50.936;5.334;2023-11-18T14:53:51;9.20;99.90
25024;DHT22;13033;50.936;5.334;2023-11-18T14:56:17;9.20;99.90
25024;DHT22;13033;50.936;5.334;2023-11-18T14:58:43;9.20;99.90
25024;DHT22;13033;50.936;5.334;2023-11-18T15:01:14;9.30;99.90
25024;DHT22;13033;50.936;5.334;2023-11-18T15:03:40;9.40;99.90
25024;DHT22;13033;50.936;5.334;2023-11-18T15:06:06;9.30;99.90
25024;DHT22;13033;50.936;5.334;2023-11-18T15:08:32;9.40;99.90
25024;DHT22;13033;50.936;5.334;2023-11-18T15:10:58;9.40;99.90
25024;DHT22;13033;50.936;5.334;2023-11-18T15:13:24;9.40;99.90
25024;DHT22;13033;50.936;5.334;2023-11-18T15:15:50;9.40;99.90
25024;DHT22;13033;50.936;5.334;2023-11-18T15:18:16;9.50;99.90
25024;DHT22;13033;50.936;5.334;2023-11-18T15:20:48;9.60;99.90
25024;DHT22;13033;50.936;5.334;2023-11-18T15:23:15;9.60;99.90
25024;DHT22;13033;50.936;5.334;2023-11-18T15:25:51;9.60;99.90
25024;DHT22;13033;50.936;5.334;2023-11-18T15:28:17;9.50;99.90
25024;DHT22;13033;50.936;5.334;2023-11-18T15:30:44;9.60;99.90
25024;DHT22;13033;50.936;5.334;2023-11-18T15:33:10;9.60;99.90
25024;DHT22;13033;50.936;5.334;2023-11-18T15:35:39;9.60;99.90
25024;DHT22;13033;50.936;5.334;2023-11-18T15:38:07;9.60;99.90
25024;DHT22;13033;50.936;5.334;2023-11-18T15:40:35;9.60;99.90
25024;DHT22;13033;50.936;5.334;2023-11-18T15:43:02;9.60;99.90
25024;DHT22;13033;50.936;5.334;2023-11-18T15:45:31;9.60;99.90
25024;DHT22;13033;50.936;5.334;2023-11-18T15:47:58;9.50;99.90
25024;DHT22;13033;50.936;5.334;2023-11-18T15:50:26;9.50;99.90
25024;DHT22;13033;50.936;5.334;2023-11-18T15:52:54;9.60;99.90
25024;DHT22;13033;50.936;5.334;2023-11-18T15:55:21;9.50;99.90
25024;DHT22;13033;50.936;5.334;2023-11-18T15:57:48;9.60;99.90
25024;DHT22;13033;50.936;5.334;2023-11-18T16:00:25;9.60;99.90
25024;DHT22;13033;50.936;5.334;2023-11-18T16:02:53;9.60;99.90
25024;DHT22;13033;50.936;5.334;2023-11-18T16:05:23;9.70;99.90
25024;DHT22;13033;50.936;5.334;2023-11-18T16:07:51;9.70;99.90
25024;DHT22;13033;50.936;5.334;2023-11-18T16:10:18;9.70;99.90
25024;DHT22;13033;50.936;5.334;2023-11-18T16:12:50;9.70;99.90
25024;DHT22;13033;50.936;5.334;2023-11-18T16:15:21;9.60;99.90
25024;DHT22;13033;50.936;5.334;2023-11-18T16:17:50;9.70;99.90